Time;durP1;ratioP1;P1;durP2;ratioP2;P2;SDS_P1;SDS_P2;PMS_P1;PMS_P2;Temp;Humidity;BMP_temperature;BMP_pressure;BME280_temperature;BME280_humidity;BME280_pressure;Samples;Min_cycle;Max_cycle;Signal;HPM_P1;HPM_P2
2021/07/20 00:01:48;;;;;;;11.02;6.40;;;;;;;17.55;68.04;99784.56;5095813;28;20116;-51
2021/07/20 00:04:14;;;;;;;10.35;5.88;;;;;;;17.56;68.12;99780.97;5096409;28;20036;-51
2021/07/20 00:06:39;;;;;;;10.88;6.75;;;;;;;17.57;67.86;99785.31;5096778;28;20120;-51
2021/07/20 00:09:06;;;;;;;11.15;6.32;;;;;;;17.58;67.83;99794.13;5100068;28;20052;-51
2021/07/20 00:11:34;;;;;;;11.35;5.80;;;;;;;17.56;67.92;99780.97;5098832;28;20458;-51
2021/07/20 00:14:00;;;;;;;10.60;5.70;;;;;;;17.57;68.11;99779.19;5099656;28;20448;-51
2021/07/20 00:16:27;;;;;;;8.15;5.75;;;;;;;17.52;68.29;99775.00;5099931;28;20342;-51
2021/07/20 00:18:52;;;;;;;10.18;6.90;;;;;;;17.48;68.42;99783.16;5099902;28;20101;-52
2021/07/20 00:21:18;;;;;;;11.27;6.35;;;;;;;17.41;68.45;99774.69;5099831;28;20044;-52
2021/07/20 00:23:44;;;;;;;13.82;7.35;;;;;;;17.39;68.48;99779.25;5099477;28;20040;-52
2021/07/20 00:26:10;;;;;;;9.35;6.38;;;;;;;17.36;68.63;99776.75;5099515;28;20040;-52
2021/07/20 00:28:36;;;;;;;16.83;7.35;;;;;;;17.33;68.76;99784.00;5099696;28;20048;-51
2021/07/20 00:31:03;;;;;;;8.23;6.25;;;;;;;17.32;68.84;99784.91;5099386;28;20051;-51
2021/07/20 00:33:28;;;;;;;10.88;6.15;;;;;;;17.28;68.88;99777.16;5099583;28;20051;-51
2021/07/20 00:35:54;;;;;;;10.93;5.85;;;;;;;17.22;68.91;99769.56;5099287;28;20472;-51
2021/07/20 00:38:20;;;;;;;12.15;6.82;;;;;;;17.27;68.77;99782.53;5099284;28;20478;-52
2021/07/20 00:40:51;;;;;;;10.75;6.55;;;;;;;17.23;68.90;99779.19;5098388;28;20040;-51
2021/07/20 00:43:17;;;;;;;7.35;5.45;;;;;;;17.20;68.90;99782.00;5099395;28;20104;-52
2021/07/20 00:45:44;;;;;;;9.35;6.38;;;;;;;17.19;68.94;99774.13;5099437;28;20169;-51
2021/07/20 00:48:12;;;;;;;10.70;6.22;;;;;;;17.15;69.22;99776.09;5098185;28;20331;-51
2021/07/20 00:50:43;;;;;;;10.30;5.80;;;;;;;17.17;69.14;99778.66;5098426;28;20048;-51
2021/07/20 00:53:12;;;;;;;8.55;6.07;;;;;;;17.10;69.50;99777.28;5098407;28;20040;-51
2021/07/20 00:55:40;;;;;;;13.52;6.32;;;;;;;17.09;69.71;99780.84;5098318;28;20052;-51
2021/07/20 00:58:07;;;;;;;12.45;5.85;;;;;;;17.08;69.68;99777.34;5097835;28;20481;-51
2021/07/20 01:00:33;;;;;;;10.77;6.15;;;;;;;17.07;69.86;99772.16;5098760;28;20051;-51
2021/07/20 01:02:59;;;;;;;10.93;6.25;;;;;;;17.03;69.95;99766.16;5099102;28;20093;-52
2021/07/20 01:05:25;;;;;;;11.88;6.55;;;;;;;16.95;70.41;99763.91;5097919;28;20342;-51
2021/07/20 01:07:53;;;;;;;12.90;6.55;;;;;;;16.94;70.48;99764.84;5098088;28;20048;-51
2021/07/20 01:10:20;;;;;;;11.13;5.63;;;;;;;16.92;70.51;99764.06;5098920;28;20124;-51
2021/07/20 01:12:48;;;;;;;10.68;6.20;;;;;;;16.90;70.45;99757.13;5098764;28;20440;-52
2021/07/20 01:15:15;;;;;;;10.75;6.75;;;;;;;16.84;70.66;99760.13;5098574;28;20047;-51
2021/07/20 01:17:43;;;;;;;9.35;6.82;;;;;;;16.78;71.06;99756.84;5097849;28;20052;-52
2021/07/20 01:20:11;;;;;;;10.30;6.78;;;;;;;16.77;70.82;99762.22;5097854;28;20069;-51
2021/07/20 01:22:37;;;;;;;8.50;6.40;;;;;;;16.76;70.68;99757.84;5098674;28;20048;-51
2021/07/20 01:25:09;;;;;;;10.73;6.05;;;;;;;16.74;70.73;99754.41;5097760;28;20331;-51
2021/07/20 01:27:52;;;;;;;10.60;6.60;;;;;;;16.70;70.59;99750.19;5097495;28;20047;-51
2021/07/20 01:30:18;;;;;;;11.75;5.68;;;;;;;16.63;71.06;99751.44;5097413;28;20044;-51
2021/07/20 01:32:44;;;;;;;12.15;7.05;;;;;;;16.60;71.16;99748.00;5097228;28;20446;-51
2021/07/20 01:35:11;;;;;;;13.30;6.78;;;;;;;16.59;71.19;99750.75;5097885;28;20426;-51
2021/07/20 01:37:40;;;;;;;8.38;6.03;;;;;;;16.53;71.23;99743.97;5080880;28;20437;-51
2021/07/20 01:40:06;;;;;;;10.52;6.30;;;;;;;16.54;71.20;99745.72;5097156;28;20048;-51
2021/07/20 01:42:33;;;;;;;11.63;6.90;;;;;;;16.48;71.47;99746.00;5097096;28;20442;-51
2021/07/20 01:44:59;;;;;;;12.82;7.00;;;;;;;16.44;71.57;99752.34;5097408;28;20137;-51
2021/07/20 01:47:26;;;;;;;12.30;7.13;;;;;;;16.38;71.86;99744.75;5097337;28;20078;-51
2021/07/20 01:49:51;;;;;;;9.52;6.13;;;;;;;16.18;72.09;99727.22;5097017;28;20047;-51
2021/07/20 01:52:17;;;;;;;10.18;6.53;;;;;;;16.30;72.12;99745.13;5080368;28;20044;-51
2021/07/20 01:54:44;;;;;;;8.57;5.80;;;;;;;16.32;71.76;99738.00;5080086;28;20492;-51
2021/07/20 01:57:12;;;;;;;11.07;6.38;;;;;;;16.30;71.94;99733.72;5063987;28;20052;-51
2021/07/20 01:59:56;;;;;;;9.77;6.05;;;;;;;16.25;72.34;99735.72;5097949;28;20056;-51
2021/07/20 02:08:28;;;;;;;12.85;6.82;;;;;;;16.09;72.79;99725.06;5069209;28;20059;-51
2021/07/20 02:11:04;;;;;;;11.32;6.72;;;;;;;16.15;73.21;99734.44;5096599;28;20055;-51
2021/07/20 02:14:03;;;;;;;9.18;6.68;;;;;;;16.11;73.83;99742.53;5043111;28;20053;-51
2021/07/20 02:16:47;;;;;;;9.95;6.40;;;;;;;16.15;73.63;99734.44;5097325;28;20453;-51
2021/07/20 02:19:17;;;;;;;11.20;7.07;;;;;;;16.17;73.58;99735.25;5097265;28;20464;-52
2021/07/20 02:21:55;;;;;;;9.70;6.35;;;;;;;16.13;73.56;99724.81;5096695;28;20059;-51
2021/07/20 02:24:22;;;;;;;9.15;6.40;;;;;;;16.12;73.90;99732.84;5097520;28;20127;-51
2021/07/20 02:26:49;;;;;;;11.13;6.45;;;;;;;16.11;73.56;99728.47;5079807;28;20075;-51
2021/07/20 02:29:17;;;;;;;8.93;5.88;;;;;;;16.10;73.73;99745.25;5079555;28;20052;-51
2021/07/20 02:31:44;;;;;;;10.88;6.07;;;;;;;16.05;73.82;99739.34;5063526;28;20063;-51
2021/07/20 02:34:10;;;;;;;10.95;6.75;;;;;;;16.06;74.09;99743.72;5079380;28;20094;-51
2021/07/20 02:36:37;;;;;;;10.38;6.70;;;;;;;16.06;73.86;99749.00;5096154;28;20051;-51
2021/07/20 02:39:04;;;;;;;10.38;6.30;;;;;;;16.04;74.04;99748.19;5079313;28;20388;-51
2021/07/20 02:41:37;;;;;;;9.23;6.30;;;;;;;16.02;74.12;99748.28;5096051;28;20055;-51
2021/07/20 02:44:04;;;;;;;10.40;6.40;;;;;;;16.03;73.82;99754.41;5079208;28;20040;-51
2021/07/20 02:46:30;;;;;;;9.88;6.18;;;;;;;16.02;73.99;99758.84;5095888;28;20534;-51
2021/07/20 02:48:57;;;;;;;11.57;6.03;;;;;;;16.01;73.91;99756.28;5062900;28;20040;-51
2021/07/20 02:51:24;;;;;;;17.30;6.90;;;;;;;16.00;74.22;99757.22;5095924;28;20040;-51
2021/07/20 02:53:52;;;;;;;11.05;6.78;;;;;;;16.01;74.04;99751.84;5079236;28;20093;-51
2021/07/20 02:56:18;;;;;;;9.93;6.60;;;;;;;15.98;74.20;99756.41;5096926;28;20082;-52
2021/07/20 02:58:48;;;;;;;9.93;6.28;;;;;;;16.01;74.38;99762.41;5079896;28;20131;-51
2021/07/20 03:01:24;;;;;;;11.82;6.75;;;;;;;16.01;74.53;99764.19;5096391;28;20051;-51
2021/07/20 03:03:50;;;;;;;10.32;6.95;;;;;;;16.03;74.73;99762.34;5079972;28;20052;-51
2021/07/20 03:06:17;;;;;;;10.90;6.80;;;;;;;16.05;74.41;99764.00;5096047;28;20132;-51
2021/07/20 03:08:44;;;;;;;13.65;6.75;;;;;;;16.06;74.83;99765.69;5062817;28;20075;-51
2021/07/20 03:11:22;;;;;;;11.55;7.38;;;;;;;16.07;75.07;99767.38;5080841;28;20047;-51
2021/07/20 03:13:50;;;;;;;11.57;6.55;;;;;;;16.12;75.02;99772.47;5095921;28;20047;-51
2021/07/20 03:16:16;;;;;;;9.18;7.07;;;;;;;16.12;75.09;99767.19;5062123;28;20109;-51
2021/07/20 03:18:44;;;;;;;12.15;6.30;;;;;;;16.19;74.97;99767.75;5078963;28;20052;-51
2021/07/20 03:21:10;;;;;;;9.52;7.22;;;;;;;16.20;74.79;99762.38;5079042;28;20055;-51
2021/07/20 03:23:36;;;;;;;12.27;7.35;;;;;;;16.25;74.56;99762.13;5078575;28;20044;-52
2021/07/20 03:26:03;;;;;;;15.38;7.45;;;;;;;16.27;74.63;99761.13;5078662;28;20040;-51
2021/07/20 03:28:29;;;;;;;7.95;5.78;;;;;;;16.29;74.95;99754.00;5078612;28;20461;-51
2021/07/20 03:30:56;;;;;;;10.48;6.38;;;;;;;16.31;74.79;99756.56;5078919;28;20072;-51
2021/07/20 03:33:23;;;;;;;11.77;7.15;;;;;;;16.35;74.84;99752.84;5062233;28;20497;-51
2021/07/20 03:35:57;;;;;;;10.30;6.63;;;;;;;16.36;74.66;99757.19;5096422;28;20353;-51
2021/07/20 03:38:23;;;;;;;11.02;6.57;;;;;;;16.38;74.68;99752.69;5078719;28;20073;-51
2021/07/20 03:40:57;;;;;;;10.45;5.63;;;;;;;16.42;74.52;99758.69;5064308;28;20064;-51
2021/07/20 03:43:24;;;;;;;9.88;6.30;;;;;;;16.44;74.36;99755.00;5099049;28;20052;-51
2021/07/20 03:45:51;;;;;;;8.70;5.75;;;;;;;16.48;74.11;99758.38;5082778;28;20071;-52
2021/07/20 03:48:18;;;;;;;9.38;6.78;;;;;;;16.48;73.95;99756.59;5082994;28;20044;-51
2021/07/20 03:50:53;;;;;;;11.35;6.28;;;;;;;16.52;74.12;99758.13;5068128;28;20446;-51
2021/07/20 03:53:19;;;;;;;8.88;6.30;;;;;;;16.58;73.79;99754.34;5065801;28;20048;-51
2021/07/20 03:55:47;;;;;;;7.10;5.68;;;;;;;16.64;73.75;99746.09;5082761;28;20109;-51
2021/07/20 03:58:14;;;;;;;7.45;5.63;;;;;;;16.70;73.44;99752.84;5099002;28;20386;-51
2021/07/20 04:00:40;;;;;;;10.77;6.50;;;;;;;16.76;73.44;99760.50;5099167;28;20036;-51
2021/07/20 04:03:21;;;;;;;7.70;5.75;;;;;;;16.81;73.40;99767.25;5082575;28;20530;-51
2021/07/20 04:06:10;;;;;;;8.60;5.30;;;;;;;16.88;72.84;99757.22;5087087;28;20047;-51
2021/07/20 04:08:58;;;;;;;;;;;;;;;16.75;73.50;99764.94;5100097;28;20055;-51
2021/07/20 04:11:44;;;;;;;11.32;6.07;;;;;;;16.89;73.61;99760.72;5099056;28;19943;-51
2021/07/20 04:14:11;;;;;;;11.10;5.60;;;;;;;16.99;73.28;99760.16;5065375;28;20430;-51
2021/07/20 04:16:46;;;;;;;8.55;5.47;;;;;;;17.07;73.45;99761.56;5083621;28;20055;-51
2021/07/20 04:19:14;;;;;;;9.23;5.47;;;;;;;17.10;73.17;99753.47;5100239;28;20040;-51
2021/07/20 04:21:59;;;;;;;7.25;5.13;;;;;;;17.20;73.15;99759.97;5099168;28;20040;-51
2021/07/20 04:24:27;;;;;;;9.52;5.90;;;;;;;17.28;73.29;99750.66;5099491;28;20055;-51
2021/07/20 04:26:54;;;;;;;8.25;5.97;;;;;;;17.34;73.03;99753.94;5098676;28;20168;-51
2021/07/20 04:29:22;;;;;;;8.85;5.75;;;;;;;17.40;73.01;99753.63;5082031;28;20062;-51
2021/07/20 04:31:47;;;;;;;10.20;5.70;;;;;;;17.41;73.32;99756.16;5099658;28;20048;-52
2021/07/20 04:34:13;;;;;;;7.45;5.38;;;;;;;17.52;73.22;99767.03;5065099;28;20350;-51
2021/07/20 04:36:40;;;;;;;12.48;6.10;;;;;;;17.59;73.59;99756.13;5099578;28;20043;-52
2021/07/20 04:39:25;;;;;;;8.20;5.57;;;;;;;17.66;73.48;99765.44;5098716;28;20048;-51
2021/07/20 04:41:53;;;;;;;10.45;6.63;;;;;;;17.73;73.28;99765.00;5081968;28;20114;-52
2021/07/20 04:44:20;;;;;;;11.18;6.30;;;;;;;17.77;73.02;99748.97;5099656;28;20044;-52
2021/07/20 04:47:08;;;;;;;13.77;6.97;;;;;;;17.87;73.06;99756.31;5090314;28;20102;-51
2021/07/20 04:49:35;;;;;;;11.00;6.20;;;;;;;18.17;72.89;99771.44;5081990;28;20349;-51
2021/07/20 04:52:02;;;;;;;14.85;6.72;;;;;;;18.50;72.22;99765.16;5098803;28;20054;-52
2021/07/20 04:54:29;;;;;;;15.15;7.18;;;;;;;18.77;71.71;99768.00;5081144;28;20060;-52
2021/07/20 04:57:00;;;;;;;12.20;6.25;;;;;;;19.01;70.80;99760.34;5097931;28;20063;-52
2021/07/20 04:59:29;;;;;;;10.68;6.00;;;;;;;19.11;70.38;99758.88;5098307;28;20352;-52
2021/07/20 05:01:58;;;;;;;8.13;5.18;;;;;;;19.22;69.57;99766.16;5098820;28;20052;-52
2021/07/20 05:04:28;;;;;;;11.20;5.97;;;;;;;19.42;69.40;99759.63;5098203;28;20055;-52
2021/07/20 05:06:56;;;;;;;7.18;4.40;;;;;;;19.85;68.81;99771.06;5065350;28;20399;-52
2021/07/20 05:09:23;;;;;;;9.75;5.43;;;;;;;20.29;67.02;99768.19;5098855;28;20047;-52
2021/07/20 05:11:49;;;;;;;6.00;4.38;;;;;;;20.41;64.47;99773.63;5081288;28;20158;-52
2021/07/20 05:14:17;;;;;;;8.63;4.35;;;;;;;20.39;64.00;99773.75;5079346;28;20043;-52
2021/07/20 05:16:43;;;;;;;6.30;4.07;;;;;;;20.46;64.68;99779.53;5095697;28;20385;-52
2021/07/20 05:19:10;;;;;;;5.95;3.88;;;;;;;20.50;63.85;99786.34;5096800;28;20047;-52
2021/07/20 05:21:55;;;;;;;6.25;4.10;;;;;;;20.61;64.04;99786.50;5096583;28;20065;-52
2021/07/20 05:24:26;;;;;;;6.53;3.80;;;;;;;20.83;63.28;99779.72;5096618;28;20357;-52
2021/07/20 05:27:00;;;;;;;7.72;4.53;;;;;;;20.83;61.55;99785.06;5096816;28;20048;-52
2021/07/20 05:29:26;;;;;;;9.95;4.95;;;;;;;20.74;61.80;99789.22;5095584;28;20048;-52
2021/07/20 05:31:57;;;;;;;8.77;4.20;;;;;;;20.71;62.18;99781.44;5081117;28;20131;-52
2021/07/20 05:34:25;;;;;;;7.00;3.97;;;;;;;20.86;62.37;99784.84;5080971;28;20044;-52
2021/07/20 05:36:51;;;;;;;8.57;4.40;;;;;;;21.17;62.15;99794.25;5097577;28;20051;-52
2021/07/20 05:39:19;;;;;;;6.90;4.57;;;;;;;21.56;61.78;99793.31;5098402;28;20063;-52
2021/07/20 05:41:52;;;;;;;6.43;3.92;;;;;;;21.88;61.43;99793.69;5081476;28;20527;-52
2021/07/20 05:44:19;;;;;;;6.22;3.88;;;;;;;22.35;60.41;99793.84;5080881;28;20055;-53
2021/07/20 05:46:47;;;;;;;7.38;4.38;;;;;;;22.75;58.32;99793.53;5080718;28;20048;-53
2021/07/20 05:49:15;;;;;;;7.68;4.72;;;;;;;23.05;57.74;99788.56;5080310;28;20043;-52
2021/07/20 05:51:41;;;;;;;7.38;4.38;;;;;;;23.25;56.75;99789.69;5098135;28;20044;-53
2021/07/20 05:54:12;;;;;;;6.63;4.15;;;;;;;23.43;56.42;99798.09;5065045;28;20149;-53
2021/07/20 05:56:53;;;;;;;5.80;4.05;;;;;;;23.50;54.98;99793.94;5082169;28;20446;-53
2021/07/20 05:59:36;;;;;;;6.22;4.20;;;;;;;23.42;55.52;99790.19;5082564;28;20134;-53
2021/07/20 06:02:07;;;;;;;;;;;;;;;23.03;55.45;99786.97;5081267;28;20048;-53
2021/07/20 06:04:32;;;;;;;8.77;4.22;;;;;;;22.99;56.19;99797.03;5095841;28;19920;-52
2021/07/20 06:07:03;;;;;;;9.73;5.53;;;;;;;22.85;55.44;99806.06;5080506;28;20044;-52
2021/07/20 06:09:32;;;;;;;6.97;4.53;;;;;;;22.65;55.76;99798.69;5096983;28;20044;-53
2021/07/20 06:11:58;;;;;;;6.18;4.75;;;;;;;22.58;56.40;99800.97;5080460;28;20044;-53
2021/07/20 06:14:24;;;;;;;8.00;5.10;;;;;;;22.44;56.25;99811.84;5097637;28;20107;-53
2021/07/20 06:16:51;;;;;;;7.60;5.18;;;;;;;22.33;56.55;99811.81;5097661;28;20404;-53
2021/07/20 06:19:17;;;;;;;7.85;4.85;;;;;;;22.25;57.30;99808.84;5097280;28;20056;-53
2021/07/20 06:21:43;;;;;;;8.50;5.43;;;;;;;22.22;57.04;99820.56;5096490;28;20040;-53
2021/07/20 06:24:17;;;;;;;8.70;4.95;;;;;;;22.10;57.35;99818.78;5080919;28;20048;-53
2021/07/20 06:26:43;;;;;;;10.13;6.25;;;;;;;21.99;57.02;99826.69;5079792;28;20048;-53
2021/07/20 06:29:09;;;;;;;14.65;6.07;;;;;;;21.99;57.22;99826.69;5079729;28;20086;-53
2021/07/20 06:31:42;;;;;;;7.30;5.25;;;;;;;21.95;57.92;99823.41;5096525;28;20054;-53
2021/07/20 06:34:08;;;;;;;7.18;4.82;;;;;;;21.95;58.33;99828.75;5096519;28;20105;-52
2021/07/20 06:36:35;;;;;;;8.55;5.47;;;;;;;22.03;59.03;99829.03;5096129;28;20055;-53
2021/07/20 06:39:03;;;;;;;9.40;5.05;;;;;;;22.03;58.04;99836.19;5096949;28;20059;-53
2021/07/20 06:41:30;;;;;;;6.85;4.38;;;;;;;22.01;58.25;99828.31;5096878;28;20186;-52
2021/07/20 06:43:55;;;;;;;7.10;4.20;;;;;;;22.15;58.79;99838.84;5097415;28;20044;-53
2021/07/20 06:46:25;;;;;;;6.28;4.13;;;;;;;22.41;58.39;99833.41;5079700;28;20362;-53
2021/07/20 06:48:50;;;;;;;8.75;4.03;;;;;;;22.50;57.74;99829.22;5079118;28;20047;-52
2021/07/20 06:51:16;;;;;;;5.63;3.97;;;;;;;22.63;57.96;99835.34;5096684;28;20129;-52
2021/07/20 06:53:42;;;;;;;6.95;4.10;;;;;;;23.03;56.96;99833.22;5095774;28;20115;-53
2021/07/20 06:56:10;;;;;;;6.03;4.40;;;;;;;23.49;55.64;99826.97;5096743;28;20044;-53
2021/07/20 06:58:37;;;;;;;7.47;4.57;;;;;;;24.00;55.12;99828.34;5096108;28;20066;-53
2021/07/20 07:01:03;;;;;;;7.10;3.85;;;;;;;24.32;54.90;99820.38;5096023;28;20048;-53
2021/07/20 07:03:33;;;;;;;10.38;3.67;;;;;;;24.68;54.29;99821.03;5078908;28;20070;-53
2021/07/20 07:06:00;;;;;;;6.43;4.05;;;;;;;25.07;52.91;99818.63;5079024;28;20122;-53
2021/07/20 07:08:26;;;;;;;4.85;2.88;;;;;;;25.36;51.69;99822.38;5095565;28;20335;-53
2021/07/20 07:10:54;;;;;;;5.57;2.85;;;;;;;25.53;50.52;99825.41;5095871;28;20059;-53
2021/07/20 07:13:20;;;;;;;4.97;3.00;;;;;;;25.73;50.02;99823.66;5095764;28;20043;-53
2021/07/20 07:15:46;;;;;;;5.32;3.00;;;;;;;25.84;49.35;99829.81;5095676;28;20037;-53
2021/07/20 07:18:12;;;;;;;7.22;3.85;;;;;;;25.94;48.78;99829.84;5061879;28;20055;-53
2021/07/20 07:20:38;;;;;;;5.50;3.13;;;;;;;26.04;49.49;99817.31;5078601;28;20056;-53
2021/07/20 07:23:04;;;;;;;4.18;2.67;;;;;;;26.06;48.22;99825.22;5078983;28;20044;-53
2021/07/20 07:25:30;;;;;;;9.40;3.97;;;;;;;26.06;48.15;99822.53;5061889;28;20461;-53
2021/07/20 07:27:56;;;;;;;5.78;3.42;;;;;;;25.88;47.66;99825.03;5078609;28;20044;-53
2021/07/20 07:30:22;;;;;;;8.05;3.20;;;;;;;25.71;48.51;99828.34;5078850;28;20052;-53
2021/07/20 07:32:48;;;;;;;5.07;2.50;;;;;;;25.73;49.00;99807.56;5078747;28;20430;-53
2021/07/20 07:35:14;;;;;;;4.95;2.58;;;;;;;25.85;48.85;99811.88;5078824;28;20346;-53
2021/07/20 07:37:40;;;;;;;3.78;2.45;;;;;;;25.99;49.35;99807.97;5095815;28;20040;-53
2021/07/20 07:40:07;;;;;;;6.18;3.00;;;;;;;26.13;49.26;99801.34;5095195;28;20058;-53
2021/07/20 07:42:34;;;;;;;4.72;2.63;;;;;;;26.18;47.38;99799.13;5078606;28;20062;-53
2021/07/20 07:45:00;;;;;;;6.50;2.97;;;;;;;26.23;47.22;99802.25;5095448;28;20048;-53
2021/07/20 07:47:26;;;;;;;3.88;2.05;;;;;;;26.21;46.89;99806.91;5096206;28;20059;-53
2021/07/20 07:49:52;;;;;;;3.83;2.25;;;;;;;26.01;46.69;99798.81;5061885;28;20066;-53
2021/07/20 07:52:19;;;;;;;4.82;2.00;;;;;;;26.09;46.84;99796.25;5096981;28;20052;-53
2021/07/20 07:54:45;;;;;;;3.80;1.55;;;;;;;26.11;46.31;99801.50;5095099;28;20040;-53
2021/07/20 07:57:11;;;;;;;2.70;1.35;;;;;;;26.11;46.57;99791.63;5095462;28;20059;-53
2021/07/20 07:59:39;;;;;;;6.68;1.90;;;;;;;26.23;46.55;99802.25;5076690;28;20052;-53
2021/07/20 08:02:04;;;;;;;3.70;1.88;;;;;;;26.35;45.35;99787.69;5093122;28;20063;-53
2021/07/20 08:04:30;;;;;;;7.78;2.40;;;;;;;26.47;45.64;99799.16;5093398;28;20040;-54
2021/07/20 08:06:57;;;;;;;3.45;1.60;;;;;;;26.58;46.34;99796.34;5093436;28;20044;-53
2021/07/20 08:09:24;;;;;;;3.33;1.67;;;;;;;26.81;46.93;99794.22;5094537;28;20062;-53
2021/07/20 08:11:50;;;;;;;3.75;1.67;;;;;;;26.97;45.59;99799.00;5094560;28;20051;-53
2021/07/20 08:14:16;;;;;;;5.03;1.98;;;;;;;26.94;43.75;99800.19;5095552;28;20052;-53
2021/07/20 08:16:44;;;;;;;6.65;2.13;;;;;;;26.90;44.31;99803.28;5095795;28;20349;-53
2021/07/20 08:19:10;;;;;;;3.70;1.85;;;;;;;26.99;44.92;99799.72;5095695;28;20097;-53
2021/07/20 08:21:36;;;;;;;5.78;1.98;;;;;;;27.21;45.17;99803.97;5094792;28;20051;-53
2021/07/20 08:24:01;;;;;;;4.38;1.95;;;;;;;27.30;44.52;99797.72;5078353;28;20040;-53
2021/07/20 08:26:33;;;;;;;2.85;1.65;;;;;;;27.00;43.17;99787.97;5095839;28;20354;-54
2021/07/20 08:29:10;;;;;;;4.10;1.80;;;;;;;26.78;43.41;99797.22;5065006;28;20052;-53
2021/07/20 08:31:41;;;;;;;4.97;2.08;;;;;;;26.61;43.74;99796.06;5082169;28;20056;-53
2021/07/20 08:34:08;;;;;;;2.78;1.70;;;;;;;26.80;44.71;99797.91;5082228;28;20123;-53
2021/07/20 08:36:35;;;;;;;3.63;2.42;;;;;;;26.93;45.16;99794.94;5081596;28;20131;-53
2021/07/20 08:39:02;;;;;;;4.13;2.17;;;;;;;26.93;44.76;99797.63;5081610;28;20135;-53
2021/07/20 08:42:04;;;;;;;4.90;2.47;;;;;;;26.78;43.87;99799.91;5098643;28;20059;-53
2021/07/20 08:45:07;;;;;;;3.67;2.00;;;;;;;26.78;44.54;99805.28;5058429;28;20052;-53
2021/07/20 08:48:01;;;;;;;4.28;2.20;;;;;;;26.79;43.85;99806.97;5099049;28;20074;-53
2021/07/20 08:50:30;;;;;;;5.00;2.65;;;;;;;26.71;44.44;99806.81;5099361;28;20048;-53
2021/07/20 08:53:20;;;;;;;3.60;2.00;;;;;;;26.64;44.41;99819.13;5099267;28;20101;-53
2021/07/20 08:55:49;;;;;;;5.68;2.05;;;;;;;26.63;44.96;99814.75;5098235;28;20036;-53
2021/07/20 08:58:24;;;;;;;5.28;2.20;;;;;;;26.64;45.03;99811.06;5081539;28;20052;-53
2021/07/20 09:00:53;;;;;;;3.90;1.90;;;;;;;26.67;44.29;99816.16;5081320;28;20072;-53
2021/07/20 09:04:18;;;;;;;9.50;3.42;;;;;;;26.35;42.47;99815.38;5098857;28;20366;-53
2021/07/20 09:06:54;;;;;;;5.28;2.45;;;;;;;26.38;44.33;99810.72;5074624;28;20060;-53
2021/07/20 09:09:27;;;;;;;6.88;2.55;;;;;;;26.39;44.92;99818.66;5098159;28;20048;-53
2021/07/20 09:11:55;;;;;;;4.25;3.13;;;;;;;26.32;44.19;99812.13;5081757;28;20040;-53
2021/07/20 09:14:37;;;;;;;4.65;2.60;;;;;;;26.64;44.34;99811.06;5098787;28;20040;-53
2021/07/20 09:17:06;;;;;;;3.20;2.10;;;;;;;27.00;45.95;99812.16;5098069;28;20075;-53
2021/07/20 09:20:09;;;;;;;5.00;2.63;;;;;;;27.36;42.00;99809.72;5097686;28;20043;-53
2021/07/20 09:22:55;;;;;;;4.68;2.25;;;;;;;27.55;43.19;99803.44;5098517;28;20044;-53
2021/07/20 09:25:27;;;;;;;8.48;2.50;;;;;;;27.78;42.56;99812.00;5098666;28;20052;-54
2021/07/20 09:28:03;;;;;;;5.07;2.47;;;;;;;27.62;40.75;99796.44;5098400;28;20469;-54
2021/07/20 09:30:39;;;;;;;6.15;2.33;;;;;;;27.42;39.60;99809.13;5097709;28;20043;-54
2021/07/20 09:33:44;;;;;;;4.45;2.70;;;;;;;27.09;40.63;99805.94;5097313;28;20063;-54
2021/07/20 09:36:15;;;;;;;5.72;2.25;;;;;;;26.96;41.42;99808.06;5098958;28;20051;-53
2021/07/20 09:38:52;;;;;;;5.70;2.30;;;;;;;27.11;42.11;99809.34;5098198;28;20052;-53
2021/07/20 09:41:21;;;;;;;4.53;2.60;;;;;;;27.27;42.05;99800.69;5080434;28;20472;-53
2021/07/20 09:44:17;;;;;;;5.25;2.97;;;;;;;27.15;39.28;99805.38;5098283;28;20346;-53
2021/07/20 09:47:21;;;;;;;5.53;2.80;;;;;;;26.70;41.04;99799.75;5069697;28;20044;-53
2021/07/20 09:50:09;;;;;;;5.45;2.28;;;;;;;26.29;42.10;99798.97;5096416;28;20438;-53
2021/07/20 09:52:41;;;;;;;6.60;2.53;;;;;;;26.14;42.56;99809.28;5097768;28;20366;-53
2021/07/20 09:55:22;;;;;;;5.45;3.00;;;;;;;25.87;43.78;99805.41;5097908;28;20451;-54
2021/07/20 09:58:00;;;;;;;3.67;2.13;;;;;;;25.72;43.73;99803.19;5096859;28;20109;-53
2021/07/20 10:00:33;;;;;;;4.20;2.83;;;;;;;25.34;43.62;99797.50;5098065;28;20109;-53
2021/07/20 10:03:08;;;;;;;9.43;3.38;;;;;;;25.07;44.67;99800.72;5097121;28;20044;-53
2021/07/20 10:05:56;;;;;;;5.60;2.80;;;;;;;24.80;44.55;99795.91;5097114;28;20066;-53
2021/07/20 10:08:38;;;;;;;6.18;3.33;;;;;;;24.56;44.68;99800.63;5082857;28;20040;-53
2021/07/20 10:11:37;;;;;;;4.10;2.00;;;;;;;24.53;44.94;99807.06;5081141;28;20115;-52
2021/07/20 10:14:25;;;;;;;6.32;2.70;;;;;;;24.39;45.07;99794.81;5096896;28;20055;-53
2021/07/20 10:17:12;;;;;;;7.50;3.25;;;;;;;24.24;45.80;99794.25;5097713;28;20051;-53
2021/07/20 10:20:20;;;;;;;9.02;3.30;;;;;;;24.06;46.01;99795.75;5079904;28;20086;-53
2021/07/20 10:22:49;;;;;;;4.63;2.97;;;;;;;24.07;45.46;99785.91;5097167;28;20048;-53
2021/07/20 10:25:37;;;;;;;6.47;3.17;;;;;;;23.79;46.18;99789.00;5097216;28;20434;-53
2021/07/20 10:28:29;;;;;;;8.73;3.08;;;;;;;23.68;45.39;99782.75;5097171;28;20438;-52
2021/07/20 10:31:06;;;;;;;6.30;4.00;;;;;;;23.60;46.02;99786.06;5096765;28;20044;-52
2021/07/20 10:33:42;;;;;;;6.13;3.85;;;;;;;23.53;46.09;99788.38;5096162;28;20052;-52
2021/07/20 10:36:13;;;;;;;8.63;6.40;;;;;;;23.44;45.98;99780.22;5097268;28;20048;-52
2021/07/20 10:38:42;;;;;;;7.15;5.53;;;;;;;23.49;46.31;99776.19;5063197;28;20051;-52
2021/07/20 10:41:08;;;;;;;7.32;3.20;;;;;;;23.48;47.45;99781.69;5096329;28;20063;-52
2021/07/20 10:43:42;;;;;;;5.40;3.20;;;;;;;23.47;47.55;99771.97;5096619;28;20048;-52
2021/07/20 10:46:10;;;;;;;4.88;2.63;;;;;;;23.40;47.83;99778.75;5096937;28;20042;-52
2021/07/20 10:48:39;;;;;;;7.95;4.60;;;;;;;23.46;48.38;99781.78;5096510;28;20334;-52
2021/07/20 10:51:15;;;;;;;6.05;3.83;;;;;;;23.49;48.71;99784.22;5096420;28;20044;-52
2021/07/20 10:54:02;;;;;;;3.70;2.70;;;;;;;23.52;48.96;99785.81;5096888;28;20039;-52
2021/07/20 10:56:48;;;;;;;5.32;3.20;;;;;;;23.51;48.81;99786.78;5096782;28;20360;-53
2021/07/20 10:59:56;;;;;;;5.65;3.03;;;;;;;23.51;48.62;99786.78;5095902;28;20438;-53
2021/07/20 11:02:56;;;;;;;4.28;2.25;;;;;;;23.48;48.96;99776.34;5086004;28;20051;-52
2021/07/20 11:05:22;;;;;;;4.05;2.38;;;;;;;23.44;48.94;99782.91;5096798;28;20044;-52
2021/07/20 11:07:50;;;;;;;5.90;3.15;;;;;;;23.40;47.96;99778.75;5079087;28;20063;-52
2021/07/20 11:10:20;;;;;;;5.47;2.97;;;;;;;23.28;47.06;99778.75;5095889;28;20078;-53
2021/07/20 11:12:48;;;;;;;7.63;2.50;;;;;;;23.36;47.54;99780.81;5095847;28;20358;-53
2021/07/20 11:15:14;;;;;;;5.47;2.72;;;;;;;23.37;47.46;99781.66;5095494;28;20509;-52
2021/07/20 11:17:40;;;;;;;5.50;2.83;;;;;;;23.37;47.68;99778.97;5078975;28;20048;-52
2021/07/20 11:20:12;;;;;;;4.93;2.33;;;;;;;23.46;47.52;99784.47;5095747;28;20107;-53
2021/07/20 11:22:38;;;;;;;6.07;4.53;;;;;;;23.45;47.00;99781.91;5096314;28;20052;-53
2021/07/20 11:25:05;;;;;;;6.22;3.28;;;;;;;23.36;47.54;99774.63;5096541;28;20073;-53
2021/07/20 11:27:32;;;;;;;7.38;4.32;;;;;;;23.34;47.92;99777.44;5079039;28;20044;-53
2021/07/20 11:29:58;;;;;;;5.93;3.33;;;;;;;23.36;48.02;99777.28;5062196;28;20048;-53
2021/07/20 11:32:28;;;;;;;7.35;3.33;;;;;;;23.28;47.80;99772.56;5078280;28;20385;-52
2021/07/20 11:35:06;;;;;;;5.03;2.72;;;;;;;23.29;47.67;99772.44;5078747;28;20496;-52
2021/07/20 11:37:35;;;;;;;6.20;2.92;;;;;;;23.37;48.40;99776.31;5079441;28;20047;-52
2021/07/20 11:40:13;;;;;;;4.60;2.78;;;;;;;23.38;48.14;99772.69;5095469;28;20121;-53
2021/07/20 11:42:54;;;;;;;4.75;3.17;;;;;;;23.23;47.47;99770.22;5096023;28;20054;-52
2021/07/20 11:45:20;;;;;;;5.90;3.22;;;;;;;23.13;48.63;99771.94;5079612;28;20048;-53
2021/07/20 11:47:54;;;;;;;4.47;3.22;;;;;;;23.23;48.49;99772.06;5096271;28;20486;-52
2021/07/20 11:50:25;;;;;;;4.65;2.58;;;;;;;23.31;48.15;99772.31;5095360;28;20058;-52
2021/07/20 11:53:02;;;;;;;4.45;2.80;;;;;;;23.33;49.12;99773.03;5096103;28;20048;-52
2021/07/20 11:55:45;;;;;;;4.85;2.90;;;;;;;23.33;47.90;99765.03;5095748;28;20138;-52
2021/07/20 11:58:30;;;;;;;4.55;2.90;;;;;;;23.30;48.45;99767.94;5095006;28;20056;-53